sensor_id;sensor_type;location;lat;lon;timestamp;P1;durP1;ratioP1;P2;durP2;ratioP2
31262;SDS011;17892;52.080;9.006;2023-02-21T00:02:19;29.05;;;13.90;;
31262;SDS011;17892;52.080;9.006;2023-02-21T00:05:04;30.38;;;14.57;;
31262;SDS011;17892;52.080;9.006;2023-02-21T00:07:48;32.20;;;15.50;;
31262;SDS011;17892;52.080;9.006;2023-02-21T00:10:33;26.27;;;12.25;;
31262;SDS011;17892;52.080;9.006;2023-02-21T00:13:17;24.38;;;11.73;;
31262;SDS011;17892;52.080;9.006;2023-02-21T00:16:01;26.58;;;11.80;;
31262;SDS011;17892;52.080;9.006;2023-02-21T00:18:46;23.23;;;11.65;;
31262;SDS011;17892;52.080;9.006;2023-02-21T00:21:30;24.48;;;11.73;;
31262;SDS011;17892;52.080;9.006;2023-02-21T00:24:16;24.65;;;12.30;;
31262;SDS011;17892;52.080;9.006;2023-02-21T00:27:02;26.25;;;12.02;;
31262;SDS011;17892;52.080;9.006;2023-02-21T00:29:47;23.48;;;12.13;;
31262;SDS011;17892;52.080;9.006;2023-02-21T00:32:32;27.80;;;14.13;;
31262;SDS011;17892;52.080;9.006;2023-02-21T00:35:17;22.33;;;11.75;;
31262;SDS011;17892;52.080;9.006;2023-02-21T00:38:01;21.50;;;10.98;;
31262;SDS011;17892;52.080;9.006;2023-02-21T00:40:46;26.55;;;12.55;;
31262;SDS011;17892;52.080;9.006;2023-02-21T00:43:31;19.17;;;10.27;;
31262;SDS011;17892;52.080;9.006;2023-02-21T00:46:18;23.60;;;11.98;;
31262;SDS011;17892;52.080;9.006;2023-02-21T00:49:03;24.20;;;11.93;;
31262;SDS011;17892;52.080;9.006;2023-02-21T00:51:48;24.20;;;12.85;;
31262;SDS011;17892;52.080;9.006;2023-02-21T00:54:33;24.98;;;12.10;;
31262;SDS011;17892;52.080;9.006;2023-02-21T00:57:17;27.58;;;13.02;;
31262;SDS011;17892;52.080;9.006;2023-02-21T01:00:03;29.50;;;15.35;;
31262;SDS011;17892;52.080;9.006;2023-02-21T01:02:49;26.10;;;12.55;;
31262;SDS011;17892;52.080;9.006;2023-02-21T01:05:33;27.30;;;11.68;;
31262;SDS011;17892;52.080;9.006;2023-02-21T01:08:17;27.48;;;13.57;;
31262;SDS011;17892;52.080;9.006;2023-02-21T01:11:02;25.48;;;13.73;;
31262;SDS011;17892;52.080;9.006;2023-02-21T01:13:46;28.05;;;13.93;;
31262;SDS011;17892;52.080;9.006;2023-02-21T01:16:31;26.55;;;12.23;;
31262;SDS011;17892;52.080;9.006;2023-02-21T01:19:16;24.63;;;13.43;;
31262;SDS011;17892;52.080;9.006;2023-02-21T01:22:01;29.48;;;14.30;;
31262;SDS011;17892;52.080;9.006;2023-02-21T01:24:50;33.17;;;15.82;;
31262;SDS011;17892;52.080;9.006;2023-02-21T01:27:35;31.10;;;14.60;;
31262;SDS011;17892;52.080;9.006;2023-02-21T01:30:19;34.10;;;15.60;;
31262;SDS011;17892;52.080;9.006;2023-02-21T01:33:03;31.88;;;14.05;;
31262;SDS011;17892;52.080;9.006;2023-02-21T01:35:48;33.92;;;15.98;;
31262;SDS011;17892;52.080;9.006;2023-02-21T01:38:33;32.65;;;16.35;;
31262;SDS011;17892;52.080;9.006;2023-02-21T01:41:18;28.88;;;13.75;;
31262;SDS011;17892;52.080;9.006;2023-02-21T01:44:26;28.73;;;13.32;;
31262;SDS011;17892;52.080;9.006;2023-02-21T01:47:25;29.33;;;13.68;;
31262;SDS011;17892;52.080;9.006;2023-02-21T01:50:17;40.53;;;17.45;;
31262;SDS011;17892;52.080;9.006;2023-02-21T01:53:15;29.17;;;14.55;;
31262;SDS011;17892;52.080;9.006;2023-02-21T01:56:07;29.70;;;14.45;;
31262;SDS011;17892;52.080;9.006;2023-02-21T01:58:52;32.20;;;15.23;;
31262;SDS011;17892;52.080;9.006;2023-02-21T02:01:48;24.23;;;12.45;;
31262;SDS011;17892;52.080;9.006;2023-02-21T02:04:39;24.90;;;11.55;;
31262;SDS011;17892;52.080;9.006;2023-02-21T02:07:24;26.73;;;13.63;;
31262;SDS011;17892;52.080;9.006;2023-02-21T02:10:08;30.13;;;14.95;;
31262;SDS011;17892;52.080;9.006;2023-02-21T02:15:41;27.60;;;12.23;;
31262;SDS011;17892;52.080;9.006;2023-02-21T02:18:34;30.33;;;13.63;;
31262;SDS011;17892;52.080;9.006;2023-02-21T02:21:37;32.92;;;15.43;;
31262;SDS011;17892;52.080;9.006;2023-02-21T02:27:14;28.00;;;14.23;;
31262;SDS011;17892;52.080;9.006;2023-02-21T02:30:15;30.52;;;15.00;;
31262;SDS011;17892;52.080;9.006;2023-02-21T02:35:55;28.45;;;13.50;;
31262;SDS011;17892;52.080;9.006;2023-02-21T02:41:15;30.48;;;13.82;;
31262;SDS011;17892;52.080;9.006;2023-02-21T02:43:58;32.42;;;14.93;;
31262;SDS011;17892;52.080;9.006;2023-02-21T02:46:33;30.15;;;14.70;;
31262;SDS011;17892;52.080;9.006;2023-02-21T02:49:17;30.27;;;13.73;;
31262;SDS011;17892;52.080;9.006;2023-02-21T02:51:49;32.72;;;15.15;;
31262;SDS011;17892;52.080;9.006;2023-02-21T02:54:16;27.83;;;14.07;;
31262;SDS011;17892;52.080;9.006;2023-02-21T02:56:42;30.80;;;14.40;;
31262;SDS011;17892;52.080;9.006;2023-02-21T02:59:13;28.98;;;14.60;;
31262;SDS011;17892;52.080;9.006;2023-02-21T03:15:21;22.30;;;11.13;;
31262;SDS011;17892;52.080;9.006;2023-02-21T03:20:59;28.60;;;14.02;;
31262;SDS011;17892;52.080;9.006;2023-02-21T03:23:29;31.75;;;15.80;;
31262;SDS011;17892;52.080;9.006;2023-02-21T03:25:58;33.22;;;15.50;;
31262;SDS011;17892;52.080;9.006;2023-02-21T03:28:29;38.22;;;17.67;;
31262;SDS011;17892;52.080;9.006;2023-02-21T03:30:57;28.95;;;13.18;;
31262;SDS011;17892;52.080;9.006;2023-02-21T03:33:24;30.58;;;12.90;;
31262;SDS011;17892;52.080;9.006;2023-02-21T03:35:51;31.23;;;15.10;;
31262;SDS011;17892;52.080;9.006;2023-02-21T03:38:17;30.88;;;14.30;;
31262;SDS011;17892;52.080;9.006;2023-02-21T03:40:43;42.90;;;19.00;;
31262;SDS011;17892;52.080;9.006;2023-02-21T03:43:09;31.70;;;15.35;;
31262;SDS011;17892;52.080;9.006;2023-02-21T03:45:34;30.25;;;14.10;;
31262;SDS011;17892;52.080;9.006;2023-02-21T03:48:01;32.88;;;15.57;;
31262;SDS011;17892;52.080;9.006;2023-02-21T03:50:27;32.03;;;16.05;;
31262;SDS011;17892;52.080;9.006;2023-02-21T03:52:53;22.77;;;11.57;;
31262;SDS011;17892;52.080;9.006;2023-02-21T03:55:19;30.17;;;14.68;;
31262;SDS011;17892;52.080;9.006;2023-02-21T03:57:45;27.60;;;13.15;;
31262;SDS011;17892;52.080;9.006;2023-02-21T04:00:11;35.60;;;16.92;;
31262;SDS011;17892;52.080;9.006;2023-02-21T04:02:38;28.48;;;13.43;;
31262;SDS011;17892;52.080;9.006;2023-02-21T04:05:04;32.47;;;15.60;;
31262;SDS011;17892;52.080;9.006;2023-02-21T04:07:30;32.60;;;15.15;;
31262;SDS011;17892;52.080;9.006;2023-02-21T04:09:56;28.90;;;13.57;;
31262;SDS011;17892;52.080;9.006;2023-02-21T04:12:21;39.33;;;18.20;;
31262;SDS011;17892;52.080;9.006;2023-02-21T04:14:48;30.13;;;14.00;;
31262;SDS011;17892;52.080;9.006;2023-02-21T04:17:13;37.00;;;16.00;;
31262;SDS011;17892;52.080;9.006;2023-02-21T04:19:40;28.48;;;14.23;;
31262;SDS011;17892;52.080;9.006;2023-02-21T04:22:05;36.60;;;15.73;;
31262;SDS011;17892;52.080;9.006;2023-02-21T04:24:31;29.35;;;13.68;;
31262;SDS011;17892;52.080;9.006;2023-02-21T04:26:57;28.98;;;13.68;;
31262;SDS011;17892;52.080;9.006;2023-02-21T04:29:23;33.65;;;16.17;;
31262;SDS011;17892;52.080;9.006;2023-02-21T04:31:48;27.40;;;13.82;;
31262;SDS011;17892;52.080;9.006;2023-02-21T04:34:15;25.15;;;12.35;;
31262;SDS011;17892;52.080;9.006;2023-02-21T04:36:41;25.45;;;14.40;;
31262;SDS011;17892;52.080;9.006;2023-02-21T04:39:07;27.60;;;12.98;;
31262;SDS011;17892;52.080;9.006;2023-02-21T04:41:33;30.60;;;13.75;;
31262;SDS011;17892;52.080;9.006;2023-02-21T04:43:58;31.33;;;13.90;;
31262;SDS011;17892;52.080;9.006;2023-02-21T04:46:24;26.38;;;12.38;;
31262;SDS011;17892;52.080;9.006;2023-02-21T04:48:50;26.23;;;12.82;;
31262;SDS011;17892;52.080;9.006;2023-02-21T04:51:17;24.02;;;11.88;;
31262;SDS011;17892;52.080;9.006;2023-02-21T04:53:46;32.92;;;14.80;;
31262;SDS011;17892;52.080;9.006;2023-02-21T04:56:13;34.40;;;15.38;;
31262;SDS011;17892;52.080;9.006;2023-02-21T04:58:42;28.13;;;13.20;;
31262;SDS011;17892;52.080;9.006;2023-02-21T05:01:09;38.28;;;16.77;;
31262;SDS011;17892;52.080;9.006;2023-02-21T05:03:36;37.53;;;15.65;;
31262;SDS011;17892;52.080;9.006;2023-02-21T05:06:02;33.92;;;14.80;;
31262;SDS011;17892;52.080;9.006;2023-02-21T05:08:27;38.15;;;16.10;;
31262;SDS011;17892;52.080;9.006;2023-02-21T05:10:53;36.60;;;15.57;;
31262;SDS011;17892;52.080;9.006;2023-02-21T05:13:19;34.38;;;16.42;;
31262;SDS011;17892;52.080;9.006;2023-02-21T05:15:46;34.67;;;16.20;;
31262;SDS011;17892;52.080;9.006;2023-02-21T05:18:13;37.40;;;17.55;;
31262;SDS011;17892;52.080;9.006;2023-02-21T05:20:50;42.17;;;17.83;;
31262;SDS011;17892;52.080;9.006;2023-02-21T05:23:17;33.75;;;16.10;;
31262;SDS011;17892;52.080;9.006;2023-02-21T05:26:08;35.83;;;16.45;;
31262;SDS011;17892;52.080;9.006;2023-02-21T05:28:36;41.00;;;18.83;;
31262;SDS011;17892;52.080;9.006;2023-02-21T05:31:03;34.50;;;14.48;;
31262;SDS011;17892;52.080;9.006;2023-02-21T05:33:30;34.53;;;14.52;;
31262;SDS011;17892;52.080;9.006;2023-02-21T05:35:56;28.55;;;13.18;;
31262;SDS011;17892;52.080;9.006;2023-02-21T05:38:22;33.63;;;14.75;;
31262;SDS011;17892;52.080;9.006;2023-02-21T05:40:50;28.95;;;12.88;;
31262;SDS011;17892;52.080;9.006;2023-02-21T05:43:16;32.47;;;15.35;;
31262;SDS011;17892;52.080;9.006;2023-02-21T05:45:42;38.22;;;15.98;;
31262;SDS011;17892;52.080;9.006;2023-02-21T05:48:07;27.30;;;13.13;;
31262;SDS011;17892;52.080;9.006;2023-02-21T05:50:33;29.88;;;14.85;;
31262;SDS011;17892;52.080;9.006;2023-02-21T05:52:59;27.75;;;13.30;;
31262;SDS011;17892;52.080;9.006;2023-02-21T05:55:26;30.52;;;15.07;;
31262;SDS011;17892;52.080;9.006;2023-02-21T05:57:52;23.63;;;11.55;;
31262;SDS011;17892;52.080;9.006;2023-02-21T06:00:21;22.25;;;11.10;;
31262;SDS011;17892;52.080;9.006;2023-02-21T06:02:50;30.90;;;14.13;;
31262;SDS011;17892;52.080;9.006;2023-02-21T06:05:17;27.85;;;13.57;;
31262;SDS011;17892;52.080;9.006;2023-02-21T06:07:43;25.38;;;12.00;;
31262;SDS011;17892;52.080;9.006;2023-02-21T06:10:10;29.40;;;13.73;;
31262;SDS011;17892;52.080;9.006;2023-02-21T06:12:36;24.65;;;12.05;;
31262;SDS011;17892;52.080;9.006;2023-02-21T06:15:02;30.88;;;13.18;;
31262;SDS011;17892;52.080;9.006;2023-02-21T06:17:31;40.45;;;16.33;;
31262;SDS011;17892;52.080;9.006;2023-02-21T06:20:01;31.83;;;15.00;;
31262;SDS011;17892;52.080;9.006;2023-02-21T06:22:28;32.88;;;15.07;;
31262;SDS011;17892;52.080;9.006;2023-02-21T06:24:54;29.65;;;14.15;;
31262;SDS011;17892;52.080;9.006;2023-02-21T06:27:20;28.08;;;13.85;;
31262;SDS011;17892;52.080;9.006;2023-02-21T06:29:45;32.83;;;13.85;;
31262;SDS011;17892;52.080;9.006;2023-02-21T06:32:11;26.27;;;11.60;;
31262;SDS011;17892;52.080;9.006;2023-02-21T06:34:37;28.58;;;12.85;;
31262;SDS011;17892;52.080;9.006;2023-02-21T06:37:02;26.60;;;12.60;;
31262;SDS011;17892;52.080;9.006;2023-02-21T06:39:28;36.55;;;14.13;;
31262;SDS011;17892;52.080;9.006;2023-02-21T06:41:54;21.95;;;10.15;;
31262;SDS011;17892;52.080;9.006;2023-02-21T06:44:20;31.88;;;14.75;;
31262;SDS011;17892;52.080;9.006;2023-02-21T06:46:46;27.90;;;12.10;;
31262;SDS011;17892;52.080;9.006;2023-02-21T06:49:14;24.05;;;10.02;;
31262;SDS011;17892;52.080;9.006;2023-02-21T06:51:40;21.20;;;10.30;;
31262;SDS011;17892;52.080;9.006;2023-02-21T06:54:07;18.85;;;8.27;;
31262;SDS011;17892;52.080;9.006;2023-02-21T06:56:33;19.40;;;10.10;;
31262;SDS011;17892;52.080;9.006;2023-02-21T06:58:59;20.58;;;9.60;;
31262;SDS011;17892;52.080;9.006;2023-02-21T07:01:25;17.08;;;8.57;;
31262;SDS011;17892;52.080;9.006;2023-02-21T07:03:53;18.83;;;8.70;;
31262;SDS011;17892;52.080;9.006;2023-02-21T07:06:21;23.02;;;10.30;;
31262;SDS011;17892;52.080;9.006;2023-02-21T07:08:47;19.67;;;9.02;;
31262;SDS011;17892;52.080;9.006;2023-02-21T07:11:13;21.20;;;9.57;;
31262;SDS011;17892;52.080;9.006;2023-02-21T07:13:39;24.50;;;11.07;;
31262;SDS011;17892;52.080;9.006;2023-02-21T07:16:05;22.98;;;10.20;;
31262;SDS011;17892;52.080;9.006;2023-02-21T07:18:32;23.60;;;9.90;;
31262;SDS011;17892;52.080;9.006;2023-02-21T07:20:58;21.40;;;9.48;;
31262;SDS011;17892;52.080;9.006;2023-02-21T07:23:23;24.27;;;9.98;;
31262;SDS011;17892;52.080;9.006;2023-02-21T07:25:49;17.40;;;8.43;;
31262;SDS011;17892;52.080;9.006;2023-02-21T07:28:16;19.73;;;9.00;;
31262;SDS011;17892;52.080;9.006;2023-02-21T07:30:42;16.23;;;8.10;;
31262;SDS011;17892;52.080;9.006;2023-02-21T07:33:08;23.85;;;10.48;;
31262;SDS011;17892;52.080;9.006;2023-02-21T07:35:33;24.88;;;10.65;;
31262;SDS011;17892;52.080;9.006;2023-02-21T07:37:59;21.25;;;9.02;;
31262;SDS011;17892;52.080;9.006;2023-02-21T07:40:24;18.17;;;8.25;;
31262;SDS011;17892;52.080;9.006;2023-02-21T07:42:50;22.27;;;10.13;;
31262;SDS011;17892;52.080;9.006;2023-02-21T07:45:16;20.35;;;9.70;;
31262;SDS011;17892;52.080;9.006;2023-02-21T07:47:43;25.08;;;11.65;;
31262;SDS011;17892;52.080;9.006;2023-02-21T07:50:09;24.48;;;10.63;;
31262;SDS011;17892;52.080;9.006;2023-02-21T07:52:35;25.63;;;11.18;;
31262;SDS011;17892;52.080;9.006;2023-02-21T07:55:01;21.08;;;9.73;;
31262;SDS011;17892;52.080;9.006;2023-02-21T07:57:27;26.50;;;10.85;;
31262;SDS011;17892;52.080;9.006;2023-02-21T07:59:52;30.27;;;12.55;;
31262;SDS011;17892;52.080;9.006;2023-02-21T08:02:18;21.67;;;9.68;;
31262;SDS011;17892;52.080;9.006;2023-02-21T08:04:44;26.27;;;11.65;;
31262;SDS011;17892;52.080;9.006;2023-02-21T08:07:14;27.25;;;11.93;;
31262;SDS011;17892;52.080;9.006;2023-02-21T08:09:40;24.00;;;11.10;;
31262;SDS011;17892;52.080;9.006;2023-02-21T08:12:05;25.73;;;10.05;;
31262;SDS011;17892;52.080;9.006;2023-02-21T08:14:31;24.27;;;11.02;;
31262;SDS011;17892;52.080;9.006;2023-02-21T08:16:57;23.38;;;10.95;;
31262;SDS011;17892;52.080;9.006;2023-02-21T08:19:22;20.83;;;9.52;;
31262;SDS011;17892;52.080;9.006;2023-02-21T08:21:48;24.92;;;10.07;;
31262;SDS011;17892;52.080;9.006;2023-02-21T08:24:15;33.00;;;15.13;;
31262;SDS011;17892;52.080;9.006;2023-02-21T08:26:42;24.92;;;10.15;;
31262;SDS011;17892;52.080;9.006;2023-02-21T08:29:10;21.58;;;9.77;;
31262;SDS011;17892;52.080;9.006;2023-02-21T08:31:37;27.77;;;11.95;;
31262;SDS011;17892;52.080;9.006;2023-02-21T08:34:05;24.77;;;10.80;;
31262;SDS011;17892;52.080;9.006;2023-02-21T08:36:32;24.00;;;10.80;;
31262;SDS011;17892;52.080;9.006;2023-02-21T08:38:59;23.55;;;10.35;;
31262;SDS011;17892;52.080;9.006;2023-02-21T08:41:33;27.48;;;11.60;;
31262;SDS011;17892;52.080;9.006;2023-02-21T08:44:11;23.98;;;10.50;;
31262;SDS011;17892;52.080;9.006;2023-02-21T08:49:06;22.48;;;9.85;;
31262;SDS011;17892;52.080;9.006;2023-02-21T08:51:32;22.20;;;9.68;;
31262;SDS011;17892;52.080;9.006;2023-02-21T08:53:59;23.67;;;10.07;;
31262;SDS011;17892;52.080;9.006;2023-02-21T08:56:26;24.70;;;9.88;;
31262;SDS011;17892;52.080;9.006;2023-02-21T08:58:52;17.92;;;8.48;;
31262;SDS011;17892;52.080;9.006;2023-02-21T09:01:19;25.10;;;10.38;;
31262;SDS011;17892;52.080;9.006;2023-02-21T09:03:46;23.38;;;10.15;;
31262;SDS011;17892;52.080;9.006;2023-02-21T09:06:11;18.95;;;8.25;;
31262;SDS011;17892;52.080;9.006;2023-02-21T09:08:37;27.45;;;11.52;;
31262;SDS011;17892;52.080;9.006;2023-02-21T09:11:04;26.17;;;12.52;;
31262;SDS011;17892;52.080;9.006;2023-02-21T09:13:31;20.05;;;10.05;;
31262;SDS011;17892;52.080;9.006;2023-02-21T09:15:58;23.30;;;11.38;;
31262;SDS011;17892;52.080;9.006;2023-02-21T09:18:26;29.38;;;12.85;;
31262;SDS011;17892;52.080;9.006;2023-02-21T09:20:52;21.85;;;9.70;;
31262;SDS011;17892;52.080;9.006;2023-02-21T09:23:21;25.30;;;12.35;;
31262;SDS011;17892;52.080;9.006;2023-02-21T09:25:48;22.70;;;11.60;;
31262;SDS011;17892;52.080;9.006;2023-02-21T09:28:15;18.27;;;9.18;;
31262;SDS011;17892;52.080;9.006;2023-02-21T09:30:41;20.40;;;9.43;;
31262;SDS011;17892;52.080;9.006;2023-02-21T09:33:08;18.27;;;8.55;;
31262;SDS011;17892;52.080;9.006;2023-02-21T09:35:34;17.65;;;8.90;;
31262;SDS011;17892;52.080;9.006;2023-02-21T09:38:01;17.08;;;8.95;;
31262;SDS011;17892;52.080;9.006;2023-02-21T09:43:09;19.08;;;9.65;;
31262;SDS011;17892;52.080;9.006;2023-02-21T09:45:39;20.05;;;9.48;;
31262;SDS011;17892;52.080;9.006;2023-02-21T09:48:14;23.38;;;10.80;;
31262;SDS011;17892;52.080;9.006;2023-02-21T09:50:45;25.98;;;11.00;;
31262;SDS011;17892;52.080;9.006;2023-02-21T09:53:28;21.17;;;9.90;;
31262;SDS011;17892;52.080;9.006;2023-02-21T09:56:09;20.70;;;9.25;;
31262;SDS011;17892;52.080;9.006;2023-02-21T09:58:44;16.15;;;8.93;;
31262;SDS011;17892;52.080;9.006;2023-02-21T10:04:39;16.52;;;8.52;;
31262;SDS011;17892;52.080;9.006;2023-02-21T10:08:06;18.67;;;8.55;;
31262;SDS011;17892;52.080;9.006;2023-02-21T10:11:13;19.40;;;10.32;;
31262;SDS011;17892;52.080;9.006;2023-02-21T10:14:05;20.77;;;8.93;;
31262;SDS011;17892;52.080;9.006;2023-02-21T10:19:42;16.10;;;8.35;;
31262;SDS011;17892;52.080;9.006;2023-02-21T10:22:15;15.20;;;7.93;;
31262;SDS011;17892;52.080;9.006;2023-02-21T10:24:53;16.70;;;8.00;;
31262;SDS011;17892;52.080;9.006;2023-02-21T10:27:20;18.42;;;9.13;;
31262;SDS011;17892;52.080;9.006;2023-02-21T10:32:34;16.02;;;8.10;;
31262;SDS011;17892;52.080;9.006;2023-02-21T10:35:00;26.83;;;8.05;;
31262;SDS011;17892;52.080;9.006;2023-02-21T10:37:37;21.15;;;9.48;;
31262;SDS011;17892;52.080;9.006;2023-02-21T10:43:17;15.32;;;7.82;;
31262;SDS011;17892;52.080;9.006;2023-02-21T10:45:52;16.38;;;8.00;;
31262;SDS011;17892;52.080;9.006;2023-02-21T10:51:16;17.27;;;8.23;;
31262;SDS011;17892;52.080;9.006;2023-02-21T10:53:54;15.25;;;7.72;;
31262;SDS011;17892;52.080;9.006;2023-02-21T10:56:49;14.68;;;7.75;;
31262;SDS011;17892;52.080;9.006;2023-02-21T11:01:49;16.00;;;8.50;;
31262;SDS011;17892;52.080;9.006;2023-02-21T11:09:27;14.10;;;7.75;;
31262;SDS011;17892;52.080;9.006;2023-02-21T11:12:17;13.57;;;7.00;;
31262;SDS011;17892;52.080;9.006;2023-02-21T11:17:18;14.20;;;7.53;;
31262;SDS011;17892;52.080;9.006;2023-02-21T11:19:49;18.98;;;9.38;;
31262;SDS011;17892;52.080;9.006;2023-02-21T11:22:25;16.50;;;8.68;;
31262;SDS011;17892;52.080;9.006;2023-02-21T11:27:36;15.48;;;7.15;;
31262;SDS011;17892;52.080;9.006;2023-02-21T11:30:08;18.27;;;9.88;;
31262;SDS011;17892;52.080;9.006;2023-02-21T11:32:40;17.95;;;9.90;;
31262;SDS011;17892;52.080;9.006;2023-02-21T11:37:47;21.10;;;9.93;;
31262;SDS011;17892;52.080;9.006;2023-02-21T11:40:29;22.45;;;10.77;;
31262;SDS011;17892;52.080;9.006;2023-02-21T11:49:16;20.45;;;10.40;;
31262;SDS011;17892;52.080;9.006;2023-02-21T11:51:53;18.45;;;8.57;;
31262;SDS011;17892;52.080;9.006;2023-02-21T11:54:26;20.13;;;10.02;;
31262;SDS011;17892;52.080;9.006;2023-02-21T11:57:13;23.40;;;11.63;;
31262;SDS011;17892;52.080;9.006;2023-02-21T12:11:20;19.55;;;10.07;;
31262;SDS011;17892;52.080;9.006;2023-02-21T12:17:11;23.25;;;10.30;;
31262;SDS011;17892;52.080;9.006;2023-02-21T12:23:25;21.92;;;11.85;;
31262;SDS011;17892;52.080;9.006;2023-02-21T12:26:04;17.65;;;8.75;;
31262;SDS011;17892;52.080;9.006;2023-02-21T12:38:24;22.35;;;11.10;;
31262;SDS011;17892;52.080;9.006;2023-02-21T12:41:21;27.35;;;13.07;;
31262;SDS011;17892;52.080;9.006;2023-02-21T12:47:06;20.40;;;9.38;;
31262;SDS011;17892;52.080;9.006;2023-02-21T12:53:28;20.70;;;10.43;;
31262;SDS011;17892;52.080;9.006;2023-02-21T12:55:46;23.27;;;10.63;;
31262;SDS011;17892;52.080;9.006;2023-02-21T13:00:57;26.48;;;11.80;;
31262;SDS011;17892;52.080;9.006;2023-02-21T13:06:28;18.70;;;8.88;;
31262;SDS011;17892;52.080;9.006;2023-02-21T13:12:10;18.17;;;8.90;;
31262;SDS011;17892;52.080;9.006;2023-02-21T13:14:42;17.77;;;9.80;;
31262;SDS011;17892;52.080;9.006;2023-02-21T13:17:15;20.63;;;9.63;;
31262;SDS011;17892;52.080;9.006;2023-02-21T13:19:44;20.23;;;10.20;;
31262;SDS011;17892;52.080;9.006;2023-02-21T13:22:24;23.65;;;11.68;;
31262;SDS011;17892;52.080;9.006;2023-02-21T13:26:23;27.20;;;13.27;;
31262;SDS011;17892;52.080;9.006;2023-02-21T13:28:23;21.98;;;11.20;;
31262;SDS011;17892;52.080;9.006;2023-02-21T13:30:57;22.95;;;11.15;;
31262;SDS011;17892;52.080;9.006;2023-02-21T13:33:34;27.10;;;12.15;;
31262;SDS011;17892;52.080;9.006;2023-02-21T13:41:38;24.98;;;11.43;;
31262;SDS011;17892;52.080;9.006;2023-02-21T13:44:18;21.65;;;10.57;;
31262;SDS011;17892;52.080;9.006;2023-02-21T13:57:50;18.38;;;8.93;;
31262;SDS011;17892;52.080;9.006;2023-02-21T14:10:57;18.83;;;8.45;;
31262;SDS011;17892;52.080;9.006;2023-02-21T14:13:32;14.30;;;6.85;;
31262;SDS011;17892;52.080;9.006;2023-02-21T14:19:02;16.33;;;7.75;;
31262;SDS011;17892;52.080;9.006;2023-02-21T14:27:33;18.50;;;8.55;;
31262;SDS011;17892;52.080;9.006;2023-02-21T14:42:58;16.10;;;8.90;;
31262;SDS011;17892;52.080;9.006;2023-02-21T14:46:04;16.25;;;7.40;;
31262;SDS011;17892;52.080;9.006;2023-02-21T15:03:37;18.42;;;8.85;;
31262;SDS011;17892;52.080;9.006;2023-02-21T15:06:19;22.48;;;10.13;;
31262;SDS011;17892;52.080;9.006;2023-02-21T15:08:49;17.33;;;9.07;;
31262;SDS011;17892;52.080;9.006;2023-02-21T15:11:22;18.23;;;8.35;;
31262;SDS011;17892;52.080;9.006;2023-02-21T15:17:31;16.98;;;7.72;;
31262;SDS011;17892;52.080;9.006;2023-02-21T15:19:42;21.27;;;9.63;;
31262;SDS011;17892;52.080;9.006;2023-02-21T15:24:57;16.17;;;7.82;;
31262;SDS011;17892;52.080;9.006;2023-02-21T15:27:32;15.70;;;7.50;;
31262;SDS011;17892;52.080;9.006;2023-02-21T15:30:13;14.68;;;8.00;;
31262;SDS011;17892;52.080;9.006;2023-02-21T15:33:00;21.30;;;9.38;;
31262;SDS011;17892;52.080;9.006;2023-02-21T15:35:39;16.42;;;8.25;;
31262;SDS011;17892;52.080;9.006;2023-02-21T15:38:22;15.15;;;7.85;;
31262;SDS011;17892;52.080;9.006;2023-02-21T15:41:08;17.95;;;7.85;;
31262;SDS011;17892;52.080;9.006;2023-02-21T15:43:48;18.08;;;8.00;;
31262;SDS011;17892;52.080;9.006;2023-02-21T15:46:27;21.45;;;9.00;;
31262;SDS011;17892;52.080;9.006;2023-02-21T15:49:08;19.13;;;9.38;;
31262;SDS011;17892;52.080;9.006;2023-02-21T15:51:43;19.90;;;9.13;;
31262;SDS011;17892;52.080;9.006;2023-02-21T15:54:20;27.77;;;11.68;;
31262;SDS011;17892;52.080;9.006;2023-02-21T15:59:32;18.10;;;8.23;;
31262;SDS011;17892;52.080;9.006;2023-02-21T16:02:05;23.48;;;10.63;;
31262;SDS011;17892;52.080;9.006;2023-02-21T16:04:41;20.92;;;9.95;;
31262;SDS011;17892;52.080;9.006;2023-02-21T16:07:20;18.73;;;9.55;;
31262;SDS011;17892;52.080;9.006;2023-02-21T16:10:10;18.67;;;7.97;;
31262;SDS011;17892;52.080;9.006;2023-02-21T16:12:42;17.35;;;7.75;;
31262;SDS011;17892;52.080;9.006;2023-02-21T16:17:57;15.63;;;7.93;;
31262;SDS011;17892;52.080;9.006;2023-02-21T16:20:48;16.15;;;7.68;;
31262;SDS011;17892;52.080;9.006;2023-02-21T16:28:33;17.42;;;7.95;;
31262;SDS011;17892;52.080;9.006;2023-02-21T16:31:05;17.88;;;7.45;;
31262;SDS011;17892;52.080;9.006;2023-02-21T16:33:52;16.90;;;9.15;;
31262;SDS011;17892;52.080;9.006;2023-02-21T16:36:25;18.38;;;8.23;;
31262;SDS011;17892;52.080;9.006;2023-02-21T16:38:56;17.80;;;8.13;;
31262;SDS011;17892;52.080;9.006;2023-02-21T16:41:23;15.20;;;7.43;;
31262;SDS011;17892;52.080;9.006;2023-02-21T16:43:49;17.25;;;6.95;;
31262;SDS011;17892;52.080;9.006;2023-02-21T16:46:21;17.48;;;7.55;;
31262;SDS011;17892;52.080;9.006;2023-02-21T16:48:51;14.27;;;7.10;;
31262;SDS011;17892;52.080;9.006;2023-02-21T16:51:18;17.45;;;8.15;;
31262;SDS011;17892;52.080;9.006;2023-02-21T16:53:45;17.33;;;7.63;;
31262;SDS011;17892;52.080;9.006;2023-02-21T16:56:12;19.98;;;8.75;;
31262;SDS011;17892;52.080;9.006;2023-02-21T16:58:42;17.02;;;7.85;;
31262;SDS011;17892;52.080;9.006;2023-02-21T17:01:20;16.13;;;7.85;;
31262;SDS011;17892;52.080;9.006;2023-02-21T17:03:51;13.85;;;6.63;;
31262;SDS011;17892;52.080;9.006;2023-02-21T17:06:20;14.00;;;7.32;;
31262;SDS011;17892;52.080;9.006;2023-02-21T17:08:49;12.45;;;6.22;;
31262;SDS011;17892;52.080;9.006;2023-02-21T17:11:15;14.43;;;7.00;;
31262;SDS011;17892;52.080;9.006;2023-02-21T17:13:41;13.85;;;6.47;;
31262;SDS011;17892;52.080;9.006;2023-02-21T17:16:07;14.20;;;6.35;;
31262;SDS011;17892;52.080;9.006;2023-02-21T17:18:33;15.70;;;7.18;;
31262;SDS011;17892;52.080;9.006;2023-02-21T17:20:59;14.88;;;8.07;;
31262;SDS011;17892;52.080;9.006;2023-02-21T17:23:26;14.45;;;7.65;;
31262;SDS011;17892;52.080;9.006;2023-02-21T17:25:52;14.18;;;6.68;;
31262;SDS011;17892;52.080;9.006;2023-02-21T17:28:18;13.93;;;6.35;;
31262;SDS011;17892;52.080;9.006;2023-02-21T17:30:44;18.90;;;8.18;;
31262;SDS011;17892;52.080;9.006;2023-02-21T17:33:11;15.18;;;7.47;;
31262;SDS011;17892;52.080;9.006;2023-02-21T17:35:37;16.98;;;8.50;;
31262;SDS011;17892;52.080;9.006;2023-02-21T17:38:03;13.80;;;6.68;;
31262;SDS011;17892;52.080;9.006;2023-02-21T17:40:29;14.98;;;7.30;;
31262;SDS011;17892;52.080;9.006;2023-02-21T17:42:55;15.80;;;7.55;;
31262;SDS011;17892;52.080;9.006;2023-02-21T17:45:21;13.60;;;7.13;;
31262;SDS011;17892;52.080;9.006;2023-02-21T17:47:48;14.00;;;6.50;;
31262;SDS011;17892;52.080;9.006;2023-02-21T17:50:15;13.25;;;6.28;;
31262;SDS011;17892;52.080;9.006;2023-02-21T17:52:43;13.10;;;6.07;;
31262;SDS011;17892;52.080;9.006;2023-02-21T17:55:09;14.75;;;6.82;;
31262;SDS011;17892;52.080;9.006;2023-02-21T17:57:45;16.90;;;7.47;;
31262;SDS011;17892;52.080;9.006;2023-02-21T18:00:15;15.02;;;7.93;;
31262;SDS011;17892;52.080;9.006;2023-02-21T18:02:50;12.85;;;6.93;;
31262;SDS011;17892;52.080;9.006;2023-02-21T18:05:17;14.35;;;7.00;;
31262;SDS011;17892;52.080;9.006;2023-02-21T18:07:45;13.73;;;6.65;;
31262;SDS011;17892;52.080;9.006;2023-02-21T18:10:16;15.32;;;7.93;;
31262;SDS011;17892;52.080;9.006;2023-02-21T18:12:44;13.50;;;6.65;;
31262;SDS011;17892;52.080;9.006;2023-02-21T18:15:10;13.50;;;6.63;;